Oriental Clematis — 9VJT5 — position and weather

sailwx.info

Track history (hours):
 
Tides and Currents Weather Stations Pressure Air Temp Water Temp Dewpoint Dewpoint Depression Visibility Wind Speed Wind Dir Waves Ship Positions

Oriental Clematis

Last reported at 2017-Apr-23 21:16 UTC. Time now 2017-Apr-24 01:29 UTC.
Position N 34°40' E 135°27'.

Length 134 m; draft 6.1 m.

Type: Ship (hazmat cat C). MMSI: 565157000.

Date/timePositionNaut miles runAvg speedWind from/ knotsBaromVisibWave heightAir tempDewpointWater temp
2017-Apr-23 21:16N 34°40' E 135°27'0 0.0
2017-Apr-23 18:28N 34°40' E 135°27'0 0.0
2017-Apr-23 17:10N 34°40' E 135°27'0 0.0
2017-Apr-23 06:04N 34°40' E 135°27'0 0.0
2017-Apr-23 05:59N 34°40' E 135°27'0 0.4
2017-Apr-23 05:30N 34°40' E 135°27'3 6.1
2017-Apr-23 05:00N 34°38' E 135°24'5 9.7
2017-Apr-23 04:30N 34°36' E 135°18'4 8.8
2017-Apr-23 04:00N 34°32' E 135°15'510.0
2017-Apr-23 03:29N 34°29' E 135°11'611.6
2017-Apr-23 03:00N 34°24' E 135°06'611.5
2017-Apr-23 02:29N 34°20' E 135°02'510.0
2017-Apr-23 02:00N 34°15' E 134°59'611.2
2017-Apr-23 01:30N 34°10' E 134°59'611.5
2017-Apr-23 01:00N 34°04' E 134°59'  
2017-Apr-20 12:41N 34°41' E 139°45'313.4
2017-Apr-20 12:27N 34°43' E 139°42'611.9
2017-Apr-20 11:58N 34°48' E 139°40'613.2
2017-Apr-20 11:30N 34°54' E 139°40'713.0
2017-Apr-20 11:00N 35°01' E 139°40'612.6
2017-Apr-20 10:30N 35°06' E 139°43'612.8
2017-Apr-20 10:00N 35°12' E 139°46'611.3
2017-Apr-20 09:30N 35°18' E 139°44'611.2
2017-Apr-20 09:00N 35°23' E 139°42'611.1
2017-Apr-20 08:30N 35°27' E 139°47'611.3
2017-Apr-20 08:00N 35°30' E 139°53'611.1
2017-Apr-20 07:30N 35°33' E 139°59'611.2
2017-Apr-20 06:59N 35°36' E 140°05'1 0.1
2017-Apr-19 23:09N 35°36' E 140°05'0 1.6
2017-Apr-19 22:59N 35°36' E 140°05'4 6.0
2017-Apr-19 22:21N 35°34' E 140°01'0 0.4
2017-Apr-19 21:49N 35°34' E 140°01'0 0.1
2017-Apr-19 21:29N 35°34' E 140°01'0 0.0
2017-Apr-19 20:53N 35°34' E 140°01'0 0.0
2017-Apr-19 20:29N 35°34' E 140°01'0 0.0
2017-Apr-19 19:56N 35°34' E 140°01'0 0.0
2017-Apr-19 19:29N 35°34' E 140°01'0 0.0
2017-Apr-19 18:59N 35°34' E 140°01'0 0.0
2017-Apr-19 18:29N 35°34' E 140°01'0 0.0
2017-Apr-19 17:53N 35°34' E 140°01'0 0.0
2017-Apr-19 17:31N 35°34' E 140°01'0 0.0
2017-Apr-19 16:54N 35°34' E 140°01'0 0.0
2017-Apr-19 16:29N 35°34' E 140°01'0 0.0
2017-Apr-19 15:59N 35°34' E 140°01'0 0.0
2017-Apr-19 15:30N 35°34' E 140°01'0 0.0
2017-Apr-19 15:00N 35°34' E 140°01'0 0.0
2017-Apr-19 14:30N 35°34' E 140°01'0 0.0
2017-Apr-19 13:18N 35°34' E 140°01'0 0.3
2017-Apr-19 13:00N 35°34' E 140°01'3 5.5
2017-Apr-19 12:30N 35°33' E 139°58'510.1
2017-Apr-19 12:00N 35°30' E 139°53'510.6
2017-Apr-19 11:30N 35°26' E 139°49'510.6
2017-Apr-19 11:00N 35°22' E 139°45'5 9.7
2017-Apr-19 10:30N 35°17' E 139°46'510.2
2017-Apr-19 10:00N 35°12' E 139°47'611.3
2017-Apr-19 09:30N 35°06' E 139°47'612.1
2017-Apr-19 09:00N 35°01' E 139°43'611.9
2017-Apr-19 08:30N 34°56' E 139°39'612.3
2017-Apr-19 08:00N 34°50' E 139°36'23610.1
2017-Apr-18 08:35N 33°56' E 134°58'210.9
2017-Apr-18 08:23N 33°58' E 134°58'411.6
2017-Apr-18 08:00N 34°02' E 134°58'611.9
2017-Apr-18 07:30N 34°08' E 134°58'612.9
2017-Apr-18 07:01N 34°15' E 134°58'812.3
2017-Apr-18 06:24N 34°22' E 135°00'912.4
2017-Apr-18 05:41N 34°27' E 135°09'212.7
2017-Apr-18 05:30N 34°28' E 135°11'612.1
2017-Apr-18 05:00N 34°32' E 135°17'510.5
2017-Apr-18 04:30N 34°33' E 135°23'2 3.4
2017-Apr-18 04:00N 34°34' E 135°25'0 0.0
2017-Apr-18 03:26N 34°34' E 135°25'0 0.0
2017-Apr-18 02:56N 34°34' E 135°25'0 0.0
2017-Apr-18 02:26N 34°34' E 135°25'0 0.0
2017-Apr-18 01:56N 34°34' E 135°25'0 0.0
2017-Apr-18 01:26N 34°34' E 135°25'0 0.0
2017-Apr-18 00:56N 34°34' E 135°25'0 0.0
2017-Apr-18 00:26N 34°34' E 135°25'0 0.0
2017-Apr-17 23:56N 34°34' E 135°25'0 0.0
2017-Apr-17 23:26N 34°34' E 135°25'0 0.0
2017-Apr-17 22:56N 34°34' E 135°25'0 0.3
2017-Apr-17 22:30N 34°33' E 135°25'3 6.4
2017-Apr-17 22:00N 34°33' E 135°21'3 5.4
2017-Apr-17 21:28N 34°35' E 135°18'0 0.1
2017-Apr-17 20:52N 34°35' E 135°18'0 0.0
2017-Apr-17 20:29N 34°35' E 135°18'0 0.1
2017-Apr-17 19:52N 34°35' E 135°18'0 0.1
2017-Apr-17 19:29N 34°35' E 135°18'0 0.1
2017-Apr-17 18:58N 34°35' E 135°18'0 0.0
2017-Apr-17 18:28N 34°35' E 135°18'0 0.1
2017-Apr-17 17:58N 34°35' E 135°18'0 0.1
2017-Apr-17 17:28N 34°35' E 135°18'0 0.2
2017-Apr-17 16:58N 34°35' E 135°18'0 0.0
2017-Apr-17 16:04N 34°35' E 135°18'0 0.2
2017-Apr-17 15:52N 34°35' E 135°18'0 0.1
2017-Apr-17 15:28N 34°35' E 135°18'0 0.4
2017-Apr-17 14:59N 34°35' E 135°18'8 7.7
2017-Apr-17 14:00N 34°35' E 135°09'4 8.8
2017-Apr-17 13:30N 34°36' E 135°03'7 9.0
2017-Apr-17 12:41N 34°35' E 134°54'212.0
2017-Apr-17 12:30N 34°34' E 134°52'2 0.1
2017-Apr-16 15:08N 34°36' E 134°54'212.7
2017-Apr-16 14:59N 34°37' E 134°56'612.1
2017-Apr-16 14:30N 34°36' E 135°04'9 8.3
2017-Apr-16 13:27N 34°34' E 135°14'0 0.1
2017-Apr-16 12:57N 34°34' E 135°14'0 0.0
2017-Apr-16 12:27N 34°34' E 135°14'0 0.0
2017-Apr-16 11:57N 34°34' E 135°14'0 0.0
2017-Apr-16 11:27N 34°34' E 135°14'0 0.0
2017-Apr-16 10:57N 34°34' E 135°14'0 0.6
2017-Apr-16 10:31N 34°34' E 135°14'4 7.9
2017-Apr-16 10:01N 34°31' E 135°17'5 9.7
2017-Apr-16 09:30N 34°26' E 135°19'0 0.9
2017-Apr-16 08:57N 34°26' E 135°19'0 0.0
2017-Apr-16 07:45N 34°26' E 135°19'0 0.0
2017-Apr-16 07:27N 34°26' E 135°19'0 0.0
2017-Apr-16 06:57N 34°26' E 135°19'0 0.0
2017-Apr-16 06:27N 34°26' E 135°19'0 0.0
2017-Apr-16 05:57N 34°26' E 135°19'0 0.0
2017-Apr-16 05:27N 34°26' E 135°19'0 0.0
2017-Apr-16 04:57N 34°26' E 135°19'0 0.0
2017-Apr-16 04:27N 34°26' E 135°19'0 0.0
2017-Apr-16 03:51N 34°26' E 135°19'0 0.0
2017-Apr-16 03:09N 34°26' E 135°19'0 0.0
2017-Apr-16 02:51N 34°26' E 135°19'0 0.0
2017-Apr-16 01:37N 34°26' E 135°19'0 0.0
2017-Apr-16 01:29N 34°26' E 135°19'0 0.8
2017-Apr-16 00:58N 34°26' E 135°19'3 6.6
2017-Apr-16 00:30N 34°28' E 135°17'4 7.5
2017-Apr-16 00:00N 34°28' E 135°12'611.5
2017-Apr-15 23:30N 34°24' E 135°07'612.2
2017-Apr-15 23:00N 34°20' E 135°02'611.4
2017-Apr-15 22:30N 34°15' E 134°59'611.6
2017-Apr-15 22:00N 34°09' E 134°59'612.4
2017-Apr-15 21:30N 34°03' E 134°59'  
Track history (hours):
 
Tides and Currents Weather Stations Pressure Air Temp Water Temp Dewpoint Dewpoint Depression Visibility Wind Speed Wind Dir Waves Ship Positions

Oriental Clematis

Last reported at 2017-Apr-23 21:16 UTC. Time now 2017-Apr-24 01:29 UTC.
Position N 34°40' E 135°27'.

Length 134 m; draft 6.1 m.

Type: Ship (hazmat cat C). MMSI: 565157000.

Date/timePositionNaut miles runAvg speedWind from/ knotsBaromVisibWave heightAir tempDewpointWater temp
2017-Apr-23 21:16N 34°40' E 135°27'0 0.0
2017-Apr-23 18:28N 34°40' E 135°27'0 0.0
2017-Apr-23 17:10N 34°40' E 135°27'0 0.0
2017-Apr-23 06:04N 34°40' E 135°27'0 0.0
2017-Apr-23 05:59N 34°40' E 135°27'0 0.4
2017-Apr-23 05:30N 34°40' E 135°27'3 6.1
2017-Apr-23 05:00N 34°38' E 135°24'5 9.7
2017-Apr-23 04:30N 34°36' E 135°18'4 8.8
2017-Apr-23 04:00N 34°32' E 135°15'510.0
2017-Apr-23 03:29N 34°29' E 135°11'611.6
2017-Apr-23 03:00N 34°24' E 135°06'611.5
2017-Apr-23 02:29N 34°20' E 135°02'510.0
2017-Apr-23 02:00N 34°15' E 134°59'611.2
2017-Apr-23 01:30N 34°10' E 134°59'611.5
2017-Apr-23 01:00N 34°04' E 134°59'  
2017-Apr-20 12:41N 34°41' E 139°45'313.4
2017-Apr-20 12:27N 34°43' E 139°42'611.9
2017-Apr-20 11:58N 34°48' E 139°40'613.2
2017-Apr-20 11:30N 34°54' E 139°40'713.0
2017-Apr-20 11:00N 35°01' E 139°40'612.6
2017-Apr-20 10:30N 35°06' E 139°43'612.8
2017-Apr-20 10:00N 35°12' E 139°46'611.3
2017-Apr-20 09:30N 35°18' E 139°44'611.2
2017-Apr-20 09:00N 35°23' E 139°42'611.1
2017-Apr-20 08:30N 35°27' E 139°47'611.3
2017-Apr-20 08:00N 35°30' E 139°53'611.1
2017-Apr-20 07:30N 35°33' E 139°59'611.2
2017-Apr-20 06:59N 35°36' E 140°05'1 0.1
2017-Apr-19 23:09N 35°36' E 140°05'0 1.6
2017-Apr-19 22:59N 35°36' E 140°05'4 6.0
2017-Apr-19 22:21N 35°34' E 140°01'0 0.4
2017-Apr-19 21:49N 35°34' E 140°01'0 0.1
2017-Apr-19 21:29N 35°34' E 140°01'0 0.0
2017-Apr-19 20:53N 35°34' E 140°01'0 0.0
2017-Apr-19 20:29N 35°34' E 140°01'0 0.0
2017-Apr-19 19:56N 35°34' E 140°01'0 0.0
2017-Apr-19 19:29N 35°34' E 140°01'0 0.0
2017-Apr-19 18:59N 35°34' E 140°01'0 0.0
2017-Apr-19 18:29N 35°34' E 140°01'0 0.0
2017-Apr-19 17:53N 35°34' E 140°01'0 0.0
2017-Apr-19 17:31N 35°34' E 140°01'0 0.0
2017-Apr-19 16:54N 35°34' E 140°01'0 0.0
2017-Apr-19 16:29N 35°34' E 140°01'0 0.0
2017-Apr-19 15:59N 35°34' E 140°01'0 0.0
2017-Apr-19 15:30N 35°34' E 140°01'0 0.0
2017-Apr-19 15:00N 35°34' E 140°01'0 0.0
2017-Apr-19 14:30N 35°34' E 140°01'0 0.0
2017-Apr-19 13:18N 35°34' E 140°01'0 0.3
2017-Apr-19 13:00N 35°34' E 140°01'3 5.5
2017-Apr-19 12:30N 35°33' E 139°58'510.1
2017-Apr-19 12:00N 35°30' E 139°53'510.6
2017-Apr-19 11:30N 35°26' E 139°49'510.6
2017-Apr-19 11:00N 35°22' E 139°45'5 9.7
2017-Apr-19 10:30N 35°17' E 139°46'510.2
2017-Apr-19 10:00N 35°12' E 139°47'611.3
2017-Apr-19 09:30N 35°06' E 139°47'612.1
2017-Apr-19 09:00N 35°01' E 139°43'611.9
2017-Apr-19 08:30N 34°56' E 139°39'612.3
2017-Apr-19 08:00N 34°50' E 139°36'23610.1
2017-Apr-18 08:35N 33°56' E 134°58'210.9
2017-Apr-18 08:23N 33°58' E 134°58'411.6
2017-Apr-18 08:00N 34°02' E 134°58'611.9
2017-Apr-18 07:30N 34°08' E 134°58'612.9
2017-Apr-18 07:01N 34°15' E 134°58'812.3
2017-Apr-18 06:24N 34°22' E 135°00'912.4
2017-Apr-18 05:41N 34°27' E 135°09'212.7
2017-Apr-18 05:30N 34°28' E 135°11'612.1
2017-Apr-18 05:00N 34°32' E 135°17'510.5
2017-Apr-18 04:30N 34°33' E 135°23'2 3.4
2017-Apr-18 04:00N 34°34' E 135°25'0 0.0
2017-Apr-18 03:26N 34°34' E 135°25'0 0.0
2017-Apr-18 02:56N 34°34' E 135°25'0 0.0
2017-Apr-18 02:26N 34°34' E 135°25'0 0.0
2017-Apr-18 01:56N 34°34' E 135°25'0 0.0
2017-Apr-18 01:26N 34°34' E 135°25'0 0.0
2017-Apr-18 00:56N 34°34' E 135°25'0 0.0
2017-Apr-18 00:26N 34°34' E 135°25'0 0.0
2017-Apr-17 23:56N 34°34' E 135°25'0 0.0
2017-Apr-17 23:26N 34°34' E 135°25'0 0.0
2017-Apr-17 22:56N 34°34' E 135°25'0 0.3
2017-Apr-17 22:30N 34°33' E 135°25'3 6.4
2017-Apr-17 22:00N 34°33' E 135°21'3 5.4
2017-Apr-17 21:28N 34°35' E 135°18'0 0.1
2017-Apr-17 20:52N 34°35' E 135°18'0 0.0
2017-Apr-17 20:29N 34°35' E 135°18'0 0.1
2017-Apr-17 19:52N 34°35' E 135°18'0 0.1
2017-Apr-17 19:29N 34°35' E 135°18'0 0.1
2017-Apr-17 18:58N 34°35' E 135°18'0 0.0
2017-Apr-17 18:28N 34°35' E 135°18'0 0.1
2017-Apr-17 17:58N 34°35' E 135°18'0 0.1
2017-Apr-17 17:28N 34°35' E 135°18'0 0.2
2017-Apr-17 16:58N 34°35' E 135°18'0 0.0
2017-Apr-17 16:04N 34°35' E 135°18'0 0.2
2017-Apr-17 15:52N 34°35' E 135°18'0 0.1
2017-Apr-17 15:28N 34°35' E 135°18'0 0.4
2017-Apr-17 14:59N 34°35' E 135°18'8 7.7
2017-Apr-17 14:00N 34°35' E 135°09'4 8.8
2017-Apr-17 13:30N 34°36' E 135°03'7 9.0
2017-Apr-17 12:41N 34°35' E 134°54'212.0
2017-Apr-17 12:30N 34°34' E 134°52'2 0.1
2017-Apr-16 15:08N 34°36' E 134°54'212.7
2017-Apr-16 14:59N 34°37' E 134°56'612.1
2017-Apr-16 14:30N 34°36' E 135°04'9 8.3
2017-Apr-16 13:27N 34°34' E 135°14'0 0.1
2017-Apr-16 12:57N 34°34' E 135°14'0 0.0
2017-Apr-16 12:27N 34°34' E 135°14'0 0.0
2017-Apr-16 11:57N 34°34' E 135°14'0 0.0
2017-Apr-16 11:27N 34°34' E 135°14'0 0.0
2017-Apr-16 10:57N 34°34' E 135°14'0 0.6
2017-Apr-16 10:31N 34°34' E 135°14'4 7.9
2017-Apr-16 10:01N 34°31' E 135°17'5 9.7
2017-Apr-16 09:30N 34°26' E 135°19'0 0.9
2017-Apr-16 08:57N 34°26' E 135°19'0 0.0
2017-Apr-16 07:45N 34°26' E 135°19'0 0.0
2017-Apr-16 07:27N 34°26' E 135°19'0 0.0
2017-Apr-16 06:57N 34°26' E 135°19'0 0.0
2017-Apr-16 06:27N 34°26' E 135°19'0 0.0
2017-Apr-16 05:57N 34°26' E 135°19'0 0.0
2017-Apr-16 05:27N 34°26' E 135°19'0 0.0
2017-Apr-16 04:57N 34°26' E 135°19'0 0.0
2017-Apr-16 04:27N 34°26' E 135°19'0 0.0
2017-Apr-16 03:51N 34°26' E 135°19'0 0.0
2017-Apr-16 03:09N 34°26' E 135°19'0 0.0
2017-Apr-16 02:51N 34°26' E 135°19'0 0.0
2017-Apr-16 01:37N 34°26' E 135°19'0 0.0
2017-Apr-16 01:29N 34°26' E 135°19'0 0.8
2017-Apr-16 00:58N 34°26' E 135°19'3 6.6
2017-Apr-16 00:30N 34°28' E 135°17'4 7.5
2017-Apr-16 00:00N 34°28' E 135°12'611.5
2017-Apr-15 23:30N 34°24' E 135°07'612.2
2017-Apr-15 23:00N 34°20' E 135°02'611.4
2017-Apr-15 22:30N 34°15' E 134°59'611.6
2017-Apr-15 22:00N 34°09' E 134°59'612.4
2017-Apr-15 21:30N 34°03' E 134°59'  

Dump ship's entire track history